地図

経路データ

SID SEASON NUMBER BASIN SUBBASIN NAME ISO_TIME NATURE LAT LON WMO_WIND WMO_PRES WMO_AGENCY TRACK_TYPE DIST2LAND LANDFALL IFLAG USA_AGENCY USA_ATCF_ID USA_LAT USA_LON USA_RECORD USA_STATUS USA_WIND USA_PRES USA_SSHS USA_R34_NE USA_R34_SE USA_R34_SW USA_R34_NW USA_R50_NE USA_R50_SE USA_R50_SW USA_R50_NW USA_R64_NE USA_R64_SE USA_R64_SW USA_R64_NW USA_POCI USA_ROCI USA_RMW USA_EYE TOKYO_LAT TOKYO_LON TOKYO_GRADE TOKYO_WIND TOKYO_PRES TOKYO_R50_DIR TOKYO_R50_LONG TOKYO_R50_SHORT TOKYO_R30_DIR TOKYO_R30_LONG TOKYO_R30_SHORT TOKYO_LAND CMA_LAT CMA_LON CMA_CAT CMA_WIND CMA_PRES HKO_LAT HKO_LON HKO_CAT HKO_WIND HKO_PRES NEWDELHI_LAT NEWDELHI_LON NEWDELHI_GRADE NEWDELHI_WIND NEWDELHI_PRES NEWDELHI_CI NEWDELHI_DP NEWDELHI_POCI REUNION_LAT REUNION_LON REUNION_TYPE REUNION_WIND REUNION_PRES REUNION_TNUM REUNION_CI REUNION_RMW REUNION_R34_NE REUNION_R34_SE REUNION_R34_SW REUNION_R34_NW REUNION_R50_NE REUNION_R50_SE REUNION_R50_SW REUNION_R50_NW REUNION_R64_NE REUNION_R64_SE REUNION_R64_SW REUNION_R64_NW BOM_LAT BOM_LON BOM_TYPE BOM_WIND BOM_PRES BOM_TNUM BOM_CI BOM_RMW BOM_R34_NE BOM_R34_SE BOM_R34_SW BOM_R34_NW BOM_R50_NE BOM_R50_SE BOM_R50_SW BOM_R50_NW BOM_R64_NE BOM_R64_SE BOM_R64_SW BOM_R64_NW BOM_ROCI BOM_POCI BOM_EYE BOM_POS_METHOD BOM_PRES_METHOD NADI_LAT NADI_LON NADI_CAT NADI_WIND NADI_PRES WELLINGTON_LAT WELLINGTON_LON WELLINGTON_WIND WELLINGTON_PRES DS824_LAT DS824_LON DS824_STAGE DS824_WIND DS824_PRES TD9636_LAT TD9636_LON TD9636_STAGE TD9636_WIND TD9636_PRES TD9635_LAT TD9635_LON TD9635_WIND TD9635_PRES TD9635_ROCI NEUMANN_LAT NEUMANN_LON NEUMANN_CLASS NEUMANN_WIND NEUMANN_PRES MLC_LAT MLC_LON MLC_CLASS MLC_WIND MLC_PRES USA_GUST BOM_GUST BOM_GUST_PER REUNION_GUST REUNION_GUST_PER USA_SEAHGT USA_SEARAD_NE USA_SEARAD_SE USA_SEARAD_SW USA_SEARAD_NW STORM_SPEED STORM_DIR
1968234N10254 1968 67 EP MM JOANNE 1968-08-21 00:00:00 TS 10.1000 -106.100 25 hurdat_epa main 959 959 O________OO___ hurdat_epa EP101968 10.1000 -106.100 TD 25 -1 10.1000 -106.100 TC 25 10.1000 -106.100 1 9 276
1968234N10254 1968 67 EP MM JOANNE 1968-08-21 03:00:00 TS 10.1466 -106.554 main 976 966 P________PP___ EP101968 10.1402 -106.567 TD 25 -1 10.1402 -106.567 TC 25 10.1721 -106.501 1 9 277
1968234N10254 1968 67 EP MM JOANNE 1968-08-21 06:00:00 TS 10.2091 -106.982 25 hurdat_epa main 982 980 O________OP___ hurdat_epa EP101968 10.2000 -107.000 TD 25 -1 10.2000 -107.000 TC 25 10.2453 -106.912 1 8 281
1968234N10254 1968 67 EP MM JOANNE 1968-08-21 09:00:00 TS 10.2980 -107.376 main 989 988 P________PP___ EP101968 10.2923 -107.385 TD 25 -1 10.2923 -107.385 TC 25 10.3208 -107.342 1 8 283
1968234N10254 1968 67 EP MM JOANNE 1968-08-21 12:00:00 TS 10.4000 -107.800 25 hurdat_epa main 998 998 O________OO___ hurdat_epa EP101968 10.4000 -107.800 TD 25 -1 10.4000 -107.800 TC 25 10.4000 -107.800 1 10 282
1968234N10254 1968 67 EP MM JOANNE 1968-08-21 15:00:00 TS 10.4970 -108.326 main 1014 1014 P________PP___ EP101968 10.5000 -108.335 TD 25 -1 10.5000 -108.335 TC 25 10.4846 -108.292 1 11 280
1968234N10254 1968 67 EP MM JOANNE 1968-08-21 18:00:00 TS 10.5955 -108.883 25 hurdat_epa main 1039 1039 O________OP___ hurdat_epa EP101968 10.6000 -108.900 TD 25 -1 10.6000 -108.900 TC 25 10.5774 -108.813 1 11 280
1968234N10254 1968 67 EP MM JOANNE 1968-08-21 21:00:00 TS 10.6902 -109.390 main 1061 1061 P________PP___ EP101968 10.6923 -109.400 TD 25 -1 10.6923 -109.400 TC 25 10.6814 -109.352 1 10 282
1968234N10254 1968 67 EP MM JOANNE 1968-08-22 00:00:00 TS 10.8000 -109.900 25 hurdat_epa main 1085 1085 O________OO___ hurdat_epa EP101968 10.8000 -109.900 TD 25 -1 10.8000 -109.900 TC 25 10.8000 -109.900 1 11 284
1968234N10254 1968 67 EP MM JOANNE 1968-08-22 03:00:00 TS 10.9402 -110.443 main 1106 1102 P________PP___ EP101968 10.9424 -110.443 TD 25 -1 10.9424 -110.443 TC 25 10.9313 -110.443 1 11 285
1968234N10254 1968 67 EP MM JOANNE 1968-08-22 06:00:00 TS 11.0954 -110.999 25 hurdat_epa main 1124 1124 O________OP___ hurdat_epa EP101968 11.1000 -111.000 TD 25 -1 11.1000 -111.000 TC 25 11.0772 -110.993 1 11 286
1968234N10254 1968 67 EP MM JOANNE 1968-08-22 09:00:00 TS 11.2468 -111.549 main 1148 1146 P________PP___ EP101968 11.2499 -111.550 TD 25 -1 11.2499 -111.550 TC 25 11.2344 -111.546 1 11 286
1968234N10254 1968 67 EP MM JOANNE 1968-08-22 12:00:00 TS 11.4000 -112.100 25 hurdat_epa main 1172 1172 O________OO___ hurdat_epa EP101968 11.4000 -112.100 TD 25 -1 11.4000 -112.100 TC 25 11.4000 -112.100 1 11 286
1968234N10254 1968 67 EP MM JOANNE 1968-08-22 15:00:00 TS 11.5491 -112.657 main 1208 1200 P________PP___ EP101968 11.5424 -112.650 TD 25 -1 11.5424 -112.650 TC 25 11.5760 -112.686 1 11 286
1968234N10254 1968 67 EP MM JOANNE 1968-08-22 18:00:00 TS 11.7115 -113.213 25 hurdat_epa main 1230 1229 O________OP___ hurdat_epa EP101968 11.7000 -113.200 TD 25 -1 11.7000 -113.200 TC 25 11.7577 -113.267 1 12 288
1968234N10254 1968 67 EP MM JOANNE 1968-08-22 21:00:00 TS 11.9131 -113.787 main 1260 1260 P________PP___ EP101968 11.9075 -113.780 TD 25 -1 11.9075 -113.780 TC 25 11.9355 -113.814 1 11 290
1968234N10254 1968 67 EP MM JOANNE 1968-08-23 00:00:00 TS 12.1000 -114.300 25 hurdat_epa main 1284 1284 O________OO___ hurdat_epa EP101968 12.1000 -114.300 TD 25 -1 12.1000 -114.300 TC 25 12.1000 -114.300 2 9 289
1968234N10254 1968 67 EP MM JOANNE 1968-08-23 03:00:00 TS 12.2129 -114.698 main 1296 1290 P________PP___ EP101968 12.2073 -114.688 TD 25 -1 12.2073 -114.688 TC 25 12.2350 -114.739 2 7 287
1968234N10254 1968 67 EP MM JOANNE 1968-08-23 06:00:00 TS 12.3114 -115.022 25 hurdat_epa main 1298 1292 O________OP___ hurdat_epa EP101968 12.3000 -115.000 TD 25 -1 12.3000 -115.000 TC 25 12.3571 -115.108 2 7 290
1968234N10254 1968 67 EP MM JOANNE 1968-08-23 09:00:00 TS 12.4492 -115.362 main 1306 1295 P________PP___ EP101968 12.4425 -115.352 TD 35 0 12.4425 -115.352 TC 35 12.4757 -115.398 2 6 297
1968234N10254 1968 67 EP MM JOANNE 1968-08-23 12:00:00 TS 12.6000 -115.600 45 hurdat_epa main 1295 1285 O________OO___ hurdat_epa EP101968 12.6000 -115.600 TS 45 0 12.6000 -115.600 TC 45 12.6000 -115.600 2 4 317
1968234N10254 1968 67 EP MM JOANNE 1968-08-23 15:00:00 TS 12.7485 -115.644 main 1285 1265 P________PP___ EP101968 12.7499 -115.638 TS 45 0 12.7499 -115.638 TC 45 12.7425 -115.671 2 3 357
1968234N10254 1968 67 EP MM JOANNE 1968-08-23 18:00:00 TS 12.8984 -115.613 45 hurdat_epa main 1265 1255 O________OP___ hurdat_epa EP101968 12.9000 -115.600 TS 45 0 12.9000 -115.600 TC 45 12.8921 -115.666 2 3 4
1968234N10254 1968 67 EP MM JOANNE 1968-08-23 21:00:00 TS 13.0491 -115.621 main 1255 1240 P________PP___ EP101968 13.0500 -115.613 TS 45 0 13.0500 -115.613 TC 45 13.0456 -115.652 2 3 344
1968234N10254 1968 67 EP MM JOANNE 1968-08-24 00:00:00 TS 13.2000 -115.700 45 hurdat_epa main 1240 1236 O________OO___ hurdat_epa EP101968 13.2000 -115.700 TS 45 0 13.2000 -115.700 TC 45 13.2000 -115.700 3 4 316
1968234N10254 1968 67 EP MM JOANNE 1968-08-24 03:00:00 TS 13.3419 -115.911 main 1241 1231 P________PP___ EP101968 13.3500 -115.912 TS 60 0 13.3500 -115.912 TC 60 13.3096 -115.907 3 6 301
1968234N10254 1968 67 EP MM JOANNE 1968-08-24 06:00:00 TS 13.4851 -116.197 75 hurdat_epa main 1238 1238 O________OP___ hurdat_epa EP101968 13.5000 -116.200 HU 75 1 13.5000 -116.200 TC 75 13.4253 -116.183 3 6 295
1968234N10254 1968 67 EP MM JOANNE 1968-08-24 09:00:00 TS 13.6057 -116.498 main 1245 1242 P________PP___ EP101968 13.6125 -116.500 HU 75 1 13.6125 -116.500 TC 75 13.5783 -116.492 3 7 298
1968234N10254 1968 67 EP MM JOANNE 1968-08-24 12:00:00 TS 13.8000 -116.800 75 hurdat_epa main 1245 1229 O________OO___ hurdat_epa EP101968 13.8000 -116.800 HU 75 1 13.8000 -116.800 TC 75 13.8000 -116.800 4 8 315
1968234N10254 1968 67 EP MM JOANNE 1968-08-24 15:00:00 TS 14.1556 -117.055 main 1227 1204 P________PP___ EP101968 14.1625 -117.058 HU 75 1 14.1625 -117.058 TC 75 14.1279 -117.045 4 9 328
1968234N10254 1968 67 EP MM JOANNE 1968-08-24 18:00:00 TS 14.5849 -117.297 75 hurdat_epa main 1204 1183 O________OP___ hurdat_epa EP101968 14.6000 -117.300 HU 75 1 14.6000 -117.300 TC 75 14.5247 -117.285 4 10 331
1968234N10254 1968 67 EP MM JOANNE 1968-08-24 21:00:00 TS 14.9918 -117.541 main 1183 1172 P________PP___ EP101968 14.9999 -117.543 HU 75 1 14.9999 -117.543 TC 75 14.9592 -117.533 4 10 329
1968234N10254 1968 67 EP MM JOANNE 1968-08-25 00:00:00 TS 15.4000 -117.800 75 hurdat_epa main 1172 1162 O________OO___ hurdat_epa EP101968 15.4000 -117.800 HU 75 1 15.4000 -117.800 TC 75 15.4000 -117.800 4 10 327
1968234N10254 1968 67 EP MM JOANNE 1968-08-25 03:00:00 TS 15.8032 -118.090 main 1162 1154 P________PP___ EP101968 15.8000 -118.085 HU 75 1 15.8000 -118.085 TC 75 15.8163 -118.107 4 10 324
1968234N10254 1968 67 EP MM JOANNE 1968-08-25 06:00:00 TS 16.2060 -118.407 75 hurdat_epa main 1154 1136 O________OP___ hurdat_epa EP101968 16.2000 -118.400 HU 75 1 16.2000 -118.400 TC 75 16.2300 -118.435 4 10 322
1968234N10254 1968 67 EP MM JOANNE 1968-08-25 09:00:00 TS 16.6178 -118.754 main 1142 1126 P________PP___ EP101968 16.6150 -118.750 HU 75 1 16.6150 -118.750 TC 75 16.6288 -118.770 4 10 320
1968234N10254 1968 67 EP MM JOANNE 1968-08-25 12:00:00 TS 17.0000 -119.100 75 hurdat_epa main 1126 1121 O________OO___ hurdat_epa EP101968 17.0000 -119.100 HU 75 1 17.0000 -119.100 TC 75 17.0000 -119.100 2 9 318
1968234N10254 1968 67 EP MM JOANNE 1968-08-25 15:00:00 TS 17.3136 -119.409 main 1121 1118 P________PP___ EP101968 17.3149 -119.408 HU 60 0 17.3149 -119.408 TC 60 17.3083 -119.412 2 8 316
1968234N10254 1968 67 EP MM JOANNE 1968-08-25 18:00:00 TS 17.5985 -119.703 45 hurdat_epa main 1118 1116 O________OP___ hurdat_epa EP101968 17.6000 -119.700 TS 45 0 17.6000 -119.700 TC 45 17.5923 -119.716 2 8 315
1968234N10254 1968 67 EP MM JOANNE 1968-08-25 21:00:00 TS 17.8840 -120.009 main 1116 1115 P________PP___ EP101968 17.8850 -120.008 TS 45 0 17.8850 -120.008 TC 45 17.8802 -120.012 2 8 317
1968234N10254 1968 67 EP MM JOANNE 1968-08-26 00:00:00 TS 18.2000 -120.300 45 hurdat_epa main 1115 1101 O________OO___ hurdat_epa EP101968 18.2000 -120.300 TS 45 0 18.2000 -120.300 TC 45 18.2000 -120.300 2 9 323
1968234N10254 1968 67 EP MM JOANNE 1968-08-26 03:00:00 TS 18.5739 -120.547 main 1101 1096 P________PP___ EP101968 18.5774 -120.550 TS 45 0 18.5774 -120.550 TC 45 18.5599 -120.535 2 9 329
1968234N10254 1968 67 EP MM JOANNE 1968-08-26 06:00:00 TS 18.9918 -120.794 45 hurdat_epa main 1098 1088 O________OP___ hurdat_epa EP101968 19.0000 -120.800 TS 45 0 19.0000 -120.800 TC 45 18.9588 -120.770 2 10 330
1968234N10254 1968 67 EP MM JOANNE 1968-08-26 09:00:00 TS 19.4165 -121.054 main 1097 1083 P________PP___ EP101968 19.4198 -121.056 TS 45 0 19.4198 -121.056 TC 45 19.4033 -121.045 2 11 328
1968234N10254 1968 67 EP MM JOANNE 1968-08-26 12:00:00 TS 19.9000 -121.400 45 hurdat_epa main 1083 1068 O________OO___ hurdat_epa EP101968 19.9000 -121.400 TS 45 0 19.9000 -121.400 TC 45 19.9000 -121.400 6 13 323
1968234N10254 1968 67 EP MM JOANNE 1968-08-26 15:00:00 TS 20.4703 -121.896 main 1065 1050 P________PP___ EP101968 20.4776 -121.905 TS 35 0 20.4776 -121.905 TC 35 20.4415 -121.861 6 16 320
1968234N10254 1968 67 EP MM JOANNE 1968-08-26 18:00:00 TS 21.0864 -122.482 25 hurdat_epa main 1057 1049 O________OP___ hurdat_epa EP101968 21.1000 -122.500 TD 25 -1 21.1000 -122.500 TC 25 21.0322 -122.409 6 16 318
1968234N10254 1968 67 EP MM JOANNE 1968-08-26 21:00:00 TS 21.6790 -123.062 main 1056 1052 P________PP___ EP101968 21.6846 -123.071 TD 25 -1 21.6846 -123.071 TC 25 21.6568 -123.027 6 17 317
1968234N10254 1968 67 EP MM JOANNE 1968-08-27 00:00:00 TS 22.3000 -123.700 25 hurdat_epa main 1063 1063 O________OO___ hurdat_epa EP101968 22.3000 -123.700 TD 25 -1 22.3000 -123.700 TC 25 22.3000 -123.700 6 18 317
1968234N10254 1968 67 EP MM JOANNE 1968-08-27 03:00:00 TS 23.0019 -124.406 main 1079 1079 P________PP___ EP101968 22.9999 -124.427 TD 25 -1 22.9999 -124.427 TC 25 23.0095 -124.318 6 19 316
1968234N10254 1968 67 EP MM JOANNE 1968-08-27 06:00:00 TS 23.7044 -125.159 25 hurdat_epa main 1114 1109 O________OP___ hurdat_epa EP101968 23.7000 -125.200 TD 25 -1 23.7000 -125.200 TC 25 23.7220 -124.996 6 19 315
1968234N10254 1968 67 EP MM JOANNE 1968-08-27 09:00:00 TS 24.3495 -125.862 main 1152 1148 P________PP___ EP101968 24.3434 -125.884 TD 25 -1 24.3434 -125.884 TC 25 24.3737 -125.777 6 18 310
1968234N10254 1968 67 EP MM JOANNE 1968-08-27 12:00:00 TS 24.9000 -126.700 25 hurdat_epa main 1205 1205 O________OO___ hurdat_epa EP101968 24.9000 -126.700 TD 25 -1 24.9000 -126.700 TC 25 24.9000 -126.700 6 20 300
1968234N10254 1968 67 EP MM JOANNE 1968-08-27 15:00:00 TS 25.3687 -127.811 main 1224 1224 P________PP___ EP101968 25.3975 -127.816 TD 25 -1 25.3975 -127.816 TC 25 25.2533 -127.792 6 23 289
1968234N10254 1968 67 EP MM JOANNE 1968-08-27 18:00:00 TS 25.6517 -129.084 25 hurdat_epa main 1273 1273 O________OP___ hurdat_epa EP101968 25.7000 -129.100 TD 25 -1 25.7000 -129.100 TC 25 25.4583 -129.020 6 23 278
1968234N10254 1968 67 EP MM JOANNE 1968-08-27 21:00:00 TS 25.6972 -130.391 main 1357 1357 P________PP___ EP101968 25.7318 -130.404 TD 25 -1 25.7318 -130.404 TC 25 25.5589 -130.338 6 24 269
1968234N10254 1968 67 EP MM JOANNE 1968-08-28 00:00:00 TS 25.6000 -131.700 25 hurdat_epa main 1455 O________OO___ hurdat_epa EP101968 25.6000 -131.700 TD 25 -1 25.6000 -131.700 TC 25 25.6000 -131.700 6 24 265

IBTrACS Databaseについて

本データベースは、米国NOAAが公開する1842年以降の世界の熱帯低気圧のベストトラックデータアーカイブInternational Best Track Archive for Climate Stewardship (IBTrACS)を、ウェブで閲覧しやすい形式に変換したものです。

最終更新日:2021-12-01